createdAt,value
2022-10-11T00:01:10.702Z,2.30
2022-10-11T00:03:40.814Z,1.57
2022-10-11T00:06:09.686Z,1.77
2022-10-11T00:08:38.341Z,3.40
2022-10-11T00:11:08.711Z,2.00
2022-10-11T00:13:37.733Z,2.03
2022-10-11T00:16:10.396Z,2.63
2022-10-11T00:18:40.960Z,1.60
2022-10-11T00:21:13.124Z,2.43
2022-10-11T00:23:42.265Z,1.43
2022-10-11T00:26:12.387Z,2.60
2022-10-11T00:28:41.671Z,1.50
2022-10-11T00:31:11.558Z,2.10
2022-10-11T00:33:41.837Z,2.23
2022-10-11T00:36:13.852Z,1.90
2022-10-11T00:38:42.938Z,2.10
2022-10-11T00:41:11.880Z,2.10
2022-10-11T00:43:41.132Z,2.43
2022-10-11T00:46:28.904Z,2.10
2022-10-11T00:49:04.702Z,1.50
2022-10-11T00:51:44.576Z,2.07
2022-10-11T00:54:17.688Z,1.50
2022-10-11T00:56:49.470Z,2.27
2022-10-11T00:59:23.360Z,1.30
2022-10-11T01:01:52.201Z,2.30
2022-10-11T01:04:22.397Z,1.30
2022-10-11T01:06:51.853Z,1.93
2022-10-11T01:09:22.565Z,1.55
2022-10-11T01:11:53.920Z,2.03
2022-10-11T01:15:03.624Z,2.07
2022-10-11T01:17:41.873Z,2.28
2022-10-11T01:20:42.900Z,2.08
2022-10-11T01:23:43.536Z,1.85
2022-10-11T01:26:39.020Z,1.80
2022-10-11T01:29:14.974Z,2.20
2022-10-11T01:31:51.308Z,2.30
2022-10-11T01:34:28.166Z,2.95
2022-10-11T01:37:05.344Z,2.20
2022-10-11T01:39:38.435Z,2.17
2022-10-11T01:42:10.982Z,1.60
2022-10-11T01:44:41.153Z,1.90
2022-10-11T01:47:11.021Z,3.28
2022-10-11T01:49:39.416Z,1.90
2022-10-11T01:52:50.892Z,2.03
2022-10-11T01:56:00.445Z,1.73
2022-10-11T01:58:48.933Z,1.85
2022-10-11T02:01:23.742Z,1.75
2022-10-11T02:04:02.838Z,2.00
2022-10-11T02:06:37.450Z,2.22
2022-10-11T02:09:13.417Z,3.17
2022-10-11T02:11:42.558Z,2.10
2022-10-11T02:14:13.504Z,1.98
2022-10-11T02:16:47.477Z,1.55
2022-10-11T02:19:21.671Z,1.40
2022-10-11T02:21:57.739Z,2.05
2022-10-11T02:24:29.917Z,2.15
2022-10-11T02:27:00.660Z,1.52
2022-10-11T02:29:33.941Z,1.35
2022-10-11T02:32:02.577Z,1.85
2022-10-11T02:34:36.582Z,2.10
2022-10-11T02:37:11.011Z,2.53
2022-10-11T02:39:44.037Z,2.38
2022-10-11T02:42:18.591Z,2.45
2022-10-11T02:44:53.489Z,2.13
2022-10-11T02:47:22.234Z,1.67
2022-10-11T02:49:54.911Z,2.30
2022-10-11T02:52:23.449Z,3.17
2022-10-11T02:54:52.135Z,2.72
2022-10-11T02:57:20.474Z,2.28
2022-10-11T02:59:48.959Z,2.20
2022-10-11T03:02:17.484Z,2.55
2022-10-11T03:04:46.058Z,2.55
2022-10-11T03:07:15.962Z,2.50
2022-10-11T03:09:45.242Z,2.40
2022-10-11T03:12:13.710Z,1.45
2022-10-11T03:14:42.073Z,2.42
2022-10-11T03:17:31.420Z,2.13
2022-10-11T03:19:58.888Z,2.90
2022-10-11T03:22:28.741Z,1.65
2022-10-11T03:25:01.098Z,2.13
2022-10-11T03:27:32.399Z,1.63
2022-10-11T03:30:00.847Z,2.17
2022-10-11T03:32:30.090Z,1.90
2022-10-11T03:35:11.460Z,2.13
2022-10-11T03:37:41.250Z,1.85
2022-10-11T03:40:12.473Z,2.85
2022-10-11T03:42:41.233Z,2.40
2022-10-11T03:45:10.684Z,2.90
2022-10-11T03:47:40.496Z,2.78
2022-10-11T03:50:10.458Z,2.33
2022-10-11T03:52:40.403Z,2.50
2022-10-11T03:55:09.994Z,2.50
2022-10-11T03:57:38.349Z,2.20
2022-10-11T04:00:08.672Z,1.90
2022-10-11T04:02:39.292Z,2.25
2022-10-11T04:05:08.407Z,2.33
2022-10-11T04:07:37.042Z,4.18
2022-10-11T04:10:07.786Z,3.00
2022-10-11T04:12:37.982Z,2.65
2022-10-11T04:15:07.709Z,2.50
2022-10-11T04:17:36.142Z,2.40
2022-10-11T04:20:05.118Z,4.00
2022-10-11T04:22:33.584Z,2.95
2022-10-11T04:25:02.016Z,2.97
2022-10-11T04:27:32.330Z,2.53
2022-10-11T04:30:28.648Z,3.17
2022-10-11T04:33:40.175Z,2.15
2022-10-11T04:37:12.457Z,3.35
2022-10-11T04:40:14.426Z,4.30
2022-10-11T04:42:44.304Z,4.00
2022-10-11T04:45:12.752Z,3.53
2022-10-11T04:47:41.659Z,3.38
2022-10-11T04:50:11.616Z,4.43
2022-10-11T04:52:40.189Z,4.13
2022-10-11T04:55:09.252Z,3.97
2022-10-11T04:57:37.704Z,3.13
2022-10-11T05:00:08.560Z,3.85
2022-10-11T05:02:37.147Z,5.13
2022-10-11T05:05:06.093Z,4.25
2022-10-11T05:07:34.444Z,3.63
2022-10-11T05:10:03.187Z,3.75
2022-10-11T05:12:31.692Z,3.92
2022-10-11T05:15:00.266Z,4.15
2022-10-11T05:17:30.070Z,3.45
2022-10-11T05:19:58.504Z,4.10
2022-10-11T05:22:27.091Z,4.20
2022-10-11T05:24:58.949Z,3.63
2022-10-11T05:27:27.490Z,4.43
2022-10-11T05:29:55.912Z,4.25
2022-10-11T05:32:27.743Z,4.72
2022-10-11T05:34:57.944Z,3.92
2022-10-11T05:37:26.378Z,4.28
2022-10-11T05:40:34.253Z,3.53
2022-10-11T05:43:02.661Z,3.60
2022-10-11T05:45:32.367Z,5.55
2022-10-11T05:48:00.997Z,3.95
2022-10-11T05:50:30.773Z,4.35
2022-10-11T05:52:59.451Z,3.28
2022-10-11T05:55:27.843Z,4.20
2022-10-11T05:57:57.335Z,4.35
2022-10-11T06:00:26.396Z,4.30
2022-10-11T06:02:54.828Z,5.60
2022-10-11T06:05:23.357Z,4.40
2022-10-11T06:07:53.225Z,3.72
2022-10-11T06:10:24.145Z,4.93
2022-10-11T06:12:52.591Z,5.30
2022-10-11T06:15:21.249Z,3.30
2022-10-11T06:17:50.074Z,5.05
2022-10-11T06:20:19.245Z,7.63
2022-10-11T06:22:47.688Z,4.13
2022-10-11T06:25:40.757Z,4.93
2022-10-11T06:28:09.302Z,5.55
2022-10-11T06:30:40.299Z,5.45
2022-10-11T06:33:08.960Z,6.40
2022-10-11T06:35:37.421Z,4.45
2022-10-11T06:38:05.955Z,4.55
2022-10-11T06:40:35.761Z,5.43
2022-10-11T06:43:04.477Z,5.57
2022-10-11T06:45:32.946Z,4.47
2022-10-11T06:48:01.922Z,5.10
2022-10-11T06:50:54.771Z,5.90
2022-10-11T06:53:18.674Z,4.72
2022-10-11T06:55:48.460Z,6.35
2022-10-11T06:58:16.858Z,4.50
2022-10-11T07:00:45.307Z,5.43
2022-10-11T07:03:13.832Z,4.82
2022-10-11T07:05:42.206Z,4.43
2022-10-11T07:08:10.854Z,4.63
2022-10-11T07:10:39.485Z,3.72
2022-10-11T07:13:14.851Z,3.83
2022-10-11T07:15:45.424Z,4.25
2022-10-11T07:18:13.851Z,4.80
2022-10-11T07:20:42.316Z,4.45
2022-10-11T07:23:10.955Z,5.85
2022-10-11T07:25:39.444Z,3.90
2022-10-11T07:28:09.529Z,4.10
2022-10-11T07:30:40.295Z,4.20
2022-10-11T07:33:09.240Z,5.23
2022-10-11T07:35:38.092Z,3.80
2022-10-11T07:38:07.534Z,4.80
2022-10-11T07:40:42.272Z,4.30
2022-10-11T07:43:12.967Z,5.33
2022-10-11T07:45:42.409Z,3.30
2022-10-11T07:48:10.968Z,3.47
2022-10-11T07:50:39.470Z,4.43
2022-10-11T07:53:08.151Z,5.03
2022-10-11T07:55:40.200Z,6.33
2022-10-11T07:58:09.274Z,3.70
2022-10-11T08:00:42.401Z,4.27
2022-10-11T08:03:11.582Z,4.13
2022-10-11T08:05:39.937Z,5.00
2022-10-11T08:08:08.868Z,5.03
2022-10-11T08:10:39.494Z,3.60
2022-10-11T08:13:08.027Z,3.80
2022-10-11T08:15:36.434Z,3.63
2022-10-11T08:18:33.364Z,3.83
2022-10-11T08:21:08.762Z,3.57
2022-10-11T08:23:37.334Z,4.07
2022-10-11T08:26:07.348Z,3.30
2022-10-11T08:28:36.567Z,4.13
2022-10-11T08:31:05.873Z,3.10
2022-10-11T08:33:50.138Z,3.47
2022-10-11T08:36:38.612Z,3.23
2022-10-11T08:39:07.846Z,2.87
2022-10-11T08:41:42.059Z,3.03
2022-10-11T08:44:22.101Z,2.50
2022-10-11T08:46:59.534Z,4.00
2022-10-11T08:49:33.585Z,2.30
2022-10-11T08:52:05.188Z,2.70
2022-10-11T08:54:40.736Z,3.33
2022-10-11T08:57:13.385Z,2.10
2022-10-11T08:59:46.202Z,2.70
2022-10-11T09:02:43.919Z,3.57
2022-10-11T09:05:20.701Z,3.93
2022-10-11T09:07:57.917Z,2.17
2022-10-11T09:10:56.624Z,4.47
2022-10-11T09:13:47.084Z,3.30
2022-10-11T09:16:25.368Z,2.80
2022-10-11T09:19:27.781Z,2.40
2022-10-11T09:22:08.041Z,2.60
2022-10-11T09:24:56.923Z,2.80
2022-10-11T09:27:50.373Z,3.93
2022-10-11T09:30:21.889Z,7.23
2022-10-11T09:33:03.215Z,7.10
2022-10-11T09:35:37.726Z,4.57
2022-10-11T09:38:14.209Z,3.20
2022-10-11T09:40:52.394Z,4.47
2022-10-11T09:43:20.864Z,3.30
2022-10-11T09:45:49.843Z,2.33
2022-10-11T09:48:22.080Z,3.00
2022-10-11T09:50:52.301Z,3.83
2022-10-11T09:53:22.667Z,2.67
2022-10-11T09:55:54.083Z,2.60
2022-10-11T09:58:31.677Z,2.80
2022-10-11T10:01:07.681Z,2.33
2022-10-11T10:03:38.923Z,2.30
2022-10-11T10:06:10.404Z,2.80
2022-10-11T10:08:40.241Z,2.60
2022-10-11T10:11:09.582Z,1.83
2022-10-11T10:13:46.851Z,1.73
2022-10-11T10:16:24.054Z,3.33
2022-10-11T10:18:55.669Z,1.73
2022-10-11T10:21:30.368Z,1.83
2022-10-11T10:24:04.180Z,3.00
2022-10-11T10:26:33.692Z,2.73
2022-10-11T10:29:06.836Z,2.30
2022-10-11T10:32:01.525Z,2.83
2022-10-11T10:34:30.969Z,1.60
2022-10-11T10:37:05.202Z,3.27
2022-10-11T10:39:41.419Z,2.47
2022-10-11T10:42:15.197Z,1.63
2022-10-11T10:44:43.933Z,1.70
2022-10-11T10:47:20.912Z,2.80
2022-10-11T10:49:58.607Z,1.47
2022-10-11T10:52:49.612Z,2.33
2022-10-11T10:55:26.749Z,1.60
2022-10-11T10:58:18.956Z,1.67
2022-10-11T11:00:49.631Z,2.30
2022-10-11T11:03:29.182Z,1.70
2022-10-11T11:06:03.218Z,1.93
2022-10-11T11:08:49.189Z,2.30
2022-10-11T11:11:37.670Z,2.40
2022-10-11T11:14:15.636Z,2.10
2022-10-11T11:16:49.836Z,2.03
2022-10-11T11:19:30.080Z,1.93
2022-10-11T11:22:05.632Z,1.87
2022-10-11T11:24:44.372Z,2.27
2022-10-11T11:27:27.417Z,1.30
2022-10-11T11:30:05.175Z,1.73
2022-10-11T11:32:45.870Z,2.67
2022-10-11T11:35:28.315Z,1.87
2022-10-11T11:38:06.541Z,2.50
2022-10-11T11:40:39.066Z,1.63
2022-10-11T11:43:23.137Z,1.37
2022-10-11T11:45:58.969Z,1.10
2022-10-11T11:48:30.632Z,1.73
2022-10-11T11:51:09.626Z,1.50
2022-10-11T11:53:52.236Z,1.40
2022-10-11T11:56:28.814Z,1.20
2022-10-11T11:59:06.862Z,1.87
2022-10-11T12:01:43.788Z,1.23
2022-10-11T12:04:20.333Z,1.80
2022-10-11T12:07:15.430Z,1.87
2022-10-11T12:09:50.417Z,1.80
2022-10-11T12:12:31.209Z,1.80
2022-10-11T12:15:20.811Z,1.57
2022-10-11T12:18:14.350Z,2.30
2022-10-11T12:20:44.498Z,1.73
2022-10-11T12:23:44.469Z,1.20
2022-10-11T12:26:44.381Z,1.80
2022-10-11T12:29:44.137Z,1.87
2022-10-11T12:32:53.426Z,1.90
2022-10-11T12:35:57.789Z,1.67
2022-10-11T12:38:29.559Z,2.03
2022-10-11T12:41:00.850Z,3.00
2022-10-11T12:43:37.906Z,3.13
2022-10-11T12:46:43.227Z,1.83
2022-10-11T12:49:28.602Z,1.37
2022-10-11T12:52:01.955Z,1.20
2022-10-11T12:55:12.623Z,1.37
2022-10-11T12:58:10.046Z,1.40
2022-10-11T13:00:46.673Z,1.30
2022-10-11T13:03:32.488Z,1.00
2022-10-11T13:06:02.186Z,1.10
2022-10-11T13:08:34.863Z,1.70
2022-10-11T13:11:06.841Z,1.43
2022-10-11T13:13:40.797Z,1.70
2022-10-11T13:16:13.584Z,1.97
2022-10-11T13:18:44.585Z,2.07
2022-10-11T13:21:25.783Z,1.77
2022-10-11T13:23:57.956Z,1.10
2022-10-11T13:26:29.240Z,1.70
2022-10-11T13:28:58.525Z,1.47
2022-10-11T13:31:27.077Z,2.10
2022-10-11T13:33:57.298Z,1.60
2022-10-11T13:36:28.285Z,1.07
2022-10-11T13:38:59.691Z,1.57
2022-10-11T13:41:31.738Z,1.20
2022-10-11T13:44:01.572Z,2.00
2022-10-11T13:46:32.268Z,1.20
2022-10-11T13:49:03.412Z,1.10
2022-10-11T13:51:36.439Z,1.60
2022-10-11T13:54:09.446Z,1.63
2022-10-11T13:56:49.373Z,1.90
2022-10-11T13:59:21.452Z,1.40
2022-10-11T14:01:54.389Z,1.63
2022-10-11T14:04:27.276Z,1.20
2022-10-11T14:07:01.083Z,1.27
2022-10-11T14:09:32.373Z,1.27
2022-10-11T14:12:30.256Z,1.83
2022-10-11T14:14:59.534Z,0.97
2022-10-11T14:17:40.191Z,1.00
2022-10-11T14:20:16.862Z,1.77
2022-10-11T14:22:45.539Z,0.97
2022-10-11T14:25:14.319Z,1.17
2022-10-11T14:27:44.335Z,1.17
2022-10-11T14:30:27.242Z,1.33
2022-10-11T14:33:00.362Z,1.40
2022-10-11T14:35:36.144Z,1.73
2022-10-11T14:38:04.831Z,1.77
2022-10-11T14:40:33.411Z,1.50
2022-10-11T14:43:03.206Z,1.10
2022-10-11T14:45:31.973Z,2.00
2022-10-11T14:48:00.357Z,1.60
2022-10-11T14:50:33.860Z,1.23
2022-10-11T14:53:02.995Z,1.77
2022-10-11T14:55:32.151Z,1.50
2022-10-11T14:58:00.579Z,1.53
2022-10-11T15:00:31.333Z,1.43
2022-10-11T15:03:00.084Z,1.87
2022-10-11T15:05:34.087Z,2.80
2022-10-11T15:08:03.072Z,2.20
2022-10-11T15:10:35.020Z,1.90
2022-10-11T15:13:03.856Z,1.90
2022-10-11T15:15:36.343Z,2.17
2022-10-11T15:18:06.908Z,2.10
2022-10-11T15:20:37.994Z,2.50
2022-10-11T15:23:07.843Z,1.90
2022-10-11T15:25:36.280Z,2.90
2022-10-11T15:28:05.139Z,1.53
2022-10-11T15:30:40.317Z,2.30
2022-10-11T15:33:10.183Z,2.40
2022-10-11T15:35:38.533Z,1.53
2022-10-11T15:38:06.919Z,1.10
2022-10-11T15:40:37.714Z,1.20
2022-10-11T15:43:06.208Z,2.27
2022-10-11T15:45:37.000Z,1.63
2022-10-11T15:48:05.673Z,1.50
2022-10-11T15:50:37.483Z,2.20
2022-10-11T15:53:08.201Z,2.50
2022-10-11T15:55:39.695Z,2.40
2022-10-11T15:58:08.401Z,2.10
2022-10-11T16:00:38.198Z,2.30
2022-10-11T16:03:07.268Z,2.70
2022-10-11T16:05:35.587Z,2.10
2022-10-11T16:08:03.994Z,1.87
2022-10-11T16:10:32.305Z,2.70
2022-10-11T16:13:00.746Z,3.40
2022-10-11T16:15:29.185Z,3.90
2022-10-11T16:17:59.022Z,2.60
2022-10-11T16:20:27.599Z,2.87
2022-10-11T16:22:56.255Z,2.50
2022-10-11T16:25:25.534Z,3.77
2022-10-11T16:27:54.170Z,4.80
2022-10-11T16:30:22.882Z,3.00
2022-10-11T16:32:51.473Z,3.70
2022-10-11T16:35:21.848Z,5.20
2022-10-11T16:37:50.357Z,3.77
2022-10-11T16:40:20.587Z,3.63
2022-10-11T16:42:49.754Z,4.27
2022-10-11T16:45:18.411Z,3.10
2022-10-11T16:47:46.864Z,4.43
2022-10-11T16:50:16.638Z,4.77
2022-10-11T16:52:46.380Z,3.97
2022-10-11T16:55:14.897Z,5.60
2022-10-11T16:57:43.391Z,6.80
2022-10-11T17:00:14.067Z,6.33
2022-10-11T17:02:42.579Z,6.37
2022-10-11T17:05:11.213Z,6.30
2022-10-11T17:07:39.769Z,8.23
2022-10-11T17:10:10.403Z,6.33
2022-10-11T17:12:38.932Z,9.00
2022-10-11T17:15:08.904Z,8.00
2022-10-11T17:17:37.308Z,7.30
2022-10-11T17:20:06.615Z,7.90
2022-10-11T17:22:35.212Z,5.77
2022-10-11T17:25:03.768Z,7.10
2022-10-11T17:27:33.550Z,6.70
2022-10-11T17:30:01.999Z,5.63
2022-10-11T17:32:30.665Z,6.67
2022-10-11T17:35:02.009Z,6.40
2022-10-11T17:37:30.389Z,7.10
2022-10-11T17:39:58.859Z,5.30
2022-10-11T17:42:27.386Z,5.77
2022-10-11T17:44:58.297Z,4.40
2022-10-11T17:47:26.715Z,4.47
2022-10-11T17:49:55.118Z,6.13
2022-10-11T17:52:23.405Z,5.77
2022-10-11T17:54:51.789Z,4.80
2022-10-11T17:57:20.087Z,5.40
2022-10-11T17:59:48.730Z,5.60
2022-10-11T18:02:18.623Z,5.73
2022-10-11T18:04:47.110Z,4.53
2022-10-11T18:07:15.501Z,6.20
2022-10-11T18:09:44.436Z,5.80
2022-10-11T18:12:12.957Z,5.90
2022-10-11T18:14:41.439Z,6.13
2022-10-11T18:17:10.347Z,7.33
2022-10-11T18:19:40.167Z,5.30
2022-10-11T18:22:08.641Z,5.53
2022-10-11T18:24:37.408Z,6.50
2022-10-11T18:27:05.927Z,6.17
2022-10-11T18:29:34.386Z,6.07
2022-10-11T18:32:02.951Z,6.37
2022-10-11T18:34:31.311Z,7.70
2022-10-11T18:37:01.129Z,6.17
2022-10-11T18:39:29.728Z,6.40
2022-10-11T18:41:58.207Z,10.30
2022-10-11T18:44:26.546Z,7.17
2022-10-11T18:46:54.864Z,8.70
2022-10-11T18:49:23.304Z,7.07
2022-10-11T18:51:51.930Z,7.20
2022-10-11T18:54:21.660Z,8.87
2022-10-11T18:56:50.604Z,8.20
2022-10-11T18:59:20.311Z,9.80
2022-10-11T19:01:52.195Z,7.70
2022-10-11T19:04:20.967Z,6.80
2022-10-11T19:06:50.590Z,6.65
2022-10-11T19:09:22.622Z,8.70
2022-10-11T19:11:51.961Z,8.20
2022-10-11T19:14:22.361Z,9.60
2022-10-11T19:16:52.243Z,7.72
2022-10-11T19:19:22.655Z,8.60
2022-10-11T19:21:51.457Z,6.50
2022-10-11T19:24:23.512Z,6.20
2022-10-11T19:26:52.993Z,7.90
2022-10-11T19:29:23.737Z,7.30
2022-10-11T19:31:53.953Z,8.40
2022-10-11T19:34:23.160Z,8.37
2022-10-11T19:36:53.306Z,8.40
2022-10-11T19:39:24.117Z,8.15
2022-10-11T19:41:52.472Z,7.20
2022-10-11T19:44:21.033Z,7.70
2022-10-11T19:46:51.881Z,8.23
2022-10-11T19:49:22.761Z,9.35
2022-10-11T19:51:51.580Z,9.40
2022-10-11T19:54:20.259Z,8.13
2022-10-11T19:56:49.994Z,6.95
2022-10-11T19:59:18.529Z,9.13
2022-10-11T20:01:52.389Z,8.43
2022-10-11T20:07:10.126Z,9.27
2022-10-11T20:10:59.431Z,7.77
2022-10-11T20:13:34.560Z,7.95
2022-10-11T20:16:07.018Z,7.72
2022-10-11T20:18:35.778Z,9.70
2022-10-11T20:21:07.810Z,6.35
2022-10-11T20:23:37.256Z,8.05
2022-10-11T20:26:12.020Z,8.88
2022-10-11T20:28:42.392Z,7.97
2022-10-11T20:31:14.932Z,9.85
2022-10-11T20:33:44.350Z,11.75
2022-10-11T20:36:15.696Z,9.35
2022-10-11T20:38:46.617Z,9.10
2022-10-11T20:41:19.751Z,9.73
2022-10-11T20:43:50.425Z,8.57
2022-10-11T20:46:22.203Z,10.05
2022-10-11T20:48:58.887Z,10.98
2022-10-11T20:51:30.934Z,10.82
2022-10-11T20:54:00.724Z,10.93
2022-10-11T20:56:30.957Z,11.10
2022-10-11T20:59:00.103Z,11.65
2022-10-11T21:01:32.281Z,13.50
2022-10-11T21:04:02.742Z,11.32
2022-10-11T21:06:34.052Z,10.75
2022-10-11T21:09:03.276Z,7.68
2022-10-11T21:11:35.548Z,12.65
2022-10-11T21:14:07.076Z,9.43
2022-10-11T21:16:36.690Z,12.05
2022-10-11T21:19:06.194Z,10.82
2022-10-11T21:21:34.926Z,11.70
2022-10-11T21:24:04.376Z,10.68
2022-10-11T21:26:35.279Z,10.50
2022-10-11T21:29:04.298Z,9.35
2022-10-11T21:31:34.555Z,10.50
2022-10-11T21:35:22.400Z,10.73
2022-10-11T21:37:51.187Z,10.68
2022-10-11T21:40:19.710Z,11.88
2022-10-11T21:42:49.797Z,11.25
2022-10-11T21:45:18.495Z,13.10
2022-10-11T21:47:47.033Z,11.25
2022-10-11T21:50:15.634Z,12.30
2022-10-11T21:52:44.253Z,12.38
2022-10-11T21:55:12.872Z,10.60
2022-10-11T21:57:49.779Z,11.63
2022-10-11T22:00:18.327Z,12.45
2022-10-11T22:02:47.630Z,11.98
2022-10-11T22:05:16.649Z,15.48
2022-10-11T22:07:45.532Z,11.80
2022-10-11T22:10:14.672Z,13.80
2022-10-11T22:12:43.243Z,12.77
2022-10-11T22:15:13.408Z,15.23
2022-10-11T22:17:42.071Z,17.85
2022-10-11T22:20:11.493Z,17.50
2022-10-11T22:22:40.045Z,16.27
2022-10-11T22:25:10.027Z,15.98
2022-10-11T22:27:38.652Z,19.83
2022-10-11T22:30:08.960Z,18.48
2022-10-11T22:32:38.946Z,14.95
2022-10-11T22:35:08.396Z,15.80
2022-10-11T22:37:37.387Z,14.90
2022-10-11T22:40:07.466Z,15.68
2022-10-11T22:42:36.179Z,15.60
2022-10-11T22:45:05.600Z,14.88
2022-10-11T22:47:34.462Z,15.52
2022-10-11T22:50:05.198Z,14.48
2022-10-11T22:52:33.973Z,14.90
2022-10-11T22:55:02.945Z,14.95
2022-10-11T22:57:31.481Z,13.10
2022-10-11T23:00:00.136Z,15.00
2022-10-11T23:02:28.711Z,13.05
2022-10-11T23:04:58.367Z,13.88
2022-10-11T23:07:28.355Z,15.60
2022-10-11T23:09:56.944Z,15.35
2022-10-11T23:12:25.598Z,15.18
2022-10-11T23:14:54.205Z,16.13
2022-10-11T23:17:22.954Z,15.15
2022-10-11T23:19:52.728Z,13.13
2022-10-11T23:22:21.253Z,14.43
2022-10-11T23:24:51.333Z,12.95
2022-10-11T23:27:19.934Z,12.25
2022-10-11T23:29:48.440Z,13.30
2022-10-11T23:32:17.056Z,10.35
2022-10-11T23:34:45.813Z,12.55
2022-10-11T23:37:14.413Z,12.60
2022-10-11T23:39:43.008Z,12.43
2022-10-11T23:42:13.175Z,12.25
2022-10-11T23:44:41.707Z,11.73
2022-10-11T23:47:10.341Z,11.50
2022-10-11T23:49:38.863Z,11.20
2022-10-11T23:52:07.579Z,12.30
2022-10-11T23:54:36.147Z,10.38
2022-10-11T23:57:04.882Z,11.30
2022-10-11T23:59:36.012Z,9.98
